createdAt,value
2022-10-09T00:01:42.682Z,3.45
2022-10-09T00:04:28.060Z,8.13
2022-10-09T00:06:54.885Z,3.22
2022-10-09T00:09:21.694Z,4.47
2022-10-09T00:11:48.552Z,4.38
2022-10-09T00:14:15.321Z,2.23
2022-10-09T00:16:42.020Z,4.27
2022-10-09T00:19:08.809Z,5.40
2022-10-09T00:21:35.647Z,5.35
2022-10-09T00:24:05.417Z,3.15
2022-10-09T00:26:32.935Z,2.90
2022-10-09T00:28:59.840Z,5.47
2022-10-09T00:31:26.837Z,6.95
2022-10-09T00:33:53.592Z,4.40
2022-10-09T00:36:23.229Z,5.27
2022-10-09T00:38:50.705Z,6.13
2022-10-09T00:41:29.920Z,3.47
2022-10-09T00:44:00.518Z,5.33
2022-10-09T00:46:48.295Z,3.90
2022-10-09T00:49:31.175Z,5.33
2022-10-09T00:52:16.809Z,3.33
2022-10-09T00:54:44.553Z,8.40
2022-10-09T00:57:11.921Z,10.45
2022-10-09T00:59:39.916Z,5.55
2022-10-09T01:02:07.638Z,4.97
2022-10-09T01:04:34.787Z,5.85
2022-10-09T01:07:19.754Z,8.65
2022-10-09T01:10:07.477Z,6.03
2022-10-09T01:12:52.480Z,7.77
2022-10-09T01:18:34.314Z,9.40
2022-10-09T01:21:08.819Z,5.95
2022-10-09T01:26:40.096Z,4.97
2022-10-09T01:29:10.749Z,5.83
2022-10-09T01:31:43.072Z,5.80
2022-10-09T01:34:13.037Z,4.60
2022-10-09T01:36:40.708Z,7.37
2022-10-09T01:39:10.205Z,10.17
2022-10-09T01:41:37.499Z,4.72
2022-10-09T01:44:14.562Z,6.30
2022-10-09T01:46:41.326Z,4.83
2022-10-09T01:49:31.728Z,8.17
2022-10-09T01:52:19.800Z,8.67
2022-10-09T01:55:16.271Z,8.23
2022-10-09T01:58:29.194Z,2.33
2022-10-09T02:01:31.447Z,6.20
2022-10-09T02:04:01.195Z,7.50
2022-10-09T02:06:28.835Z,5.40
2022-10-09T02:08:56.266Z,7.28
2022-10-09T02:11:27.766Z,7.63
2022-10-09T02:13:56.063Z,7.53
2022-10-09T02:16:34.777Z,8.60
2022-10-09T02:19:12.931Z,5.73
2022-10-09T02:21:46.214Z,9.50
2022-10-09T02:24:19.053Z,5.90
2022-10-09T02:26:46.081Z,6.43
2022-10-09T02:29:15.033Z,4.00
2022-10-09T02:32:02.428Z,5.05
2022-10-09T02:34:29.483Z,9.53
2022-10-09T02:36:56.176Z,5.53
2022-10-09T02:39:22.960Z,9.37
2022-10-09T02:42:08.754Z,3.53
2022-10-09T02:44:35.530Z,5.88
2022-10-09T02:47:02.220Z,7.97
2022-10-09T02:49:29.105Z,9.02
2022-10-09T02:51:55.814Z,6.07
2022-10-09T02:54:22.582Z,8.30
2022-10-09T02:56:49.314Z,9.18
2022-10-09T02:59:34.386Z,3.80
2022-10-09T03:02:01.291Z,3.23
2022-10-09T03:04:28.073Z,7.68
2022-10-09T03:06:54.817Z,5.53
2022-10-09T03:09:21.622Z,7.45
2022-10-09T03:11:48.545Z,6.70
2022-10-09T03:14:15.235Z,7.27
2022-10-09T03:16:42.037Z,5.20
2022-10-09T03:19:08.789Z,6.47
2022-10-09T03:21:35.577Z,6.13
2022-10-09T03:24:02.302Z,10.37
2022-10-09T03:26:29.245Z,5.93
2022-10-09T03:28:56.158Z,6.95
2022-10-09T03:34:13.414Z,7.22
2022-10-09T03:36:40.176Z,6.10
2022-10-09T03:39:25.912Z,6.00
2022-10-09T03:41:52.754Z,5.73
2022-10-09T03:44:19.447Z,7.73
2022-10-09T03:46:46.840Z,9.05
2022-10-09T03:49:14.043Z,5.80
2022-10-09T03:51:40.797Z,5.80
2022-10-09T03:54:07.556Z,9.30
2022-10-09T03:56:34.367Z,3.93
2022-10-09T03:59:01.275Z,6.63
2022-10-09T04:01:28.087Z,8.65
2022-10-09T04:03:54.849Z,7.13
2022-10-09T04:06:21.664Z,11.45
2022-10-09T04:08:48.375Z,3.95
2022-10-09T04:11:33.512Z,10.97
2022-10-09T04:14:01.321Z,12.40
2022-10-09T04:16:28.088Z,9.98
2022-10-09T04:18:54.867Z,8.52
2022-10-09T04:21:21.589Z,11.30
2022-10-09T04:23:48.570Z,14.77
2022-10-09T04:26:15.393Z,12.10
2022-10-09T04:29:00.706Z,9.53
2022-10-09T04:31:27.550Z,8.07
2022-10-09T04:33:55.502Z,9.35
2022-10-09T04:36:22.501Z,9.48
2022-10-09T04:38:49.253Z,9.30
2022-10-09T04:41:16.018Z,12.23
2022-10-09T04:43:42.846Z,14.77
2022-10-09T04:46:12.747Z,9.65
2022-10-09T04:48:41.552Z,8.60
2022-10-09T04:51:08.473Z,6.15
2022-10-09T04:53:36.381Z,8.57
2022-10-09T04:56:05.184Z,10.27
2022-10-09T04:58:32.084Z,12.30
2022-10-09T05:00:58.956Z,9.55
2022-10-09T05:03:25.740Z,9.18
2022-10-09T05:05:52.424Z,13.23
2022-10-09T05:08:38.712Z,7.80
2022-10-09T05:11:08.364Z,9.05
2022-10-09T05:13:37.976Z,11.93
2022-10-09T05:16:07.441Z,12.52
2022-10-09T05:18:35.077Z,9.90
2022-10-09T05:21:05.655Z,12.73
2022-10-09T05:23:35.802Z,8.50
2022-10-09T05:26:05.773Z,15.18
2022-10-09T05:28:32.998Z,9.68
2022-10-09T05:30:59.989Z,7.45
2022-10-09T05:33:28.822Z,9.55
2022-10-09T05:36:01.559Z,6.97
2022-10-09T05:38:29.681Z,10.45
2022-10-09T05:41:01.976Z,11.18
2022-10-09T05:43:31.528Z,9.40
2022-10-09T05:46:11.332Z,5.28
2022-10-09T05:48:58.329Z,9.82
2022-10-09T05:51:27.859Z,6.75
2022-10-09T05:53:55.545Z,8.13
2022-10-09T05:56:28.157Z,13.38
2022-10-09T05:58:57.226Z,6.85
2022-10-09T06:01:26.602Z,9.40
2022-10-09T06:03:56.028Z,8.77
2022-10-09T06:06:25.123Z,7.93
2022-10-09T06:08:51.965Z,11.05
2022-10-09T06:11:24.898Z,5.00
2022-10-09T06:13:52.328Z,6.70
2022-10-09T06:16:39.323Z,4.20
2022-10-09T06:19:07.313Z,7.50
2022-10-09T06:21:34.525Z,9.48
2022-10-09T06:24:28.671Z,5.30
2022-10-09T06:26:59.269Z,7.50
2022-10-09T06:29:26.216Z,8.25
2022-10-09T06:31:53.108Z,7.32
2022-10-09T06:34:19.829Z,10.20
2022-10-09T06:36:46.517Z,8.50
2022-10-09T06:39:13.408Z,6.07
2022-10-09T06:41:40.525Z,6.25
2022-10-09T06:44:48.106Z,10.95
2022-10-09T06:47:14.863Z,6.47
2022-10-09T06:49:41.786Z,5.07
2022-10-09T06:52:08.498Z,6.90
2022-10-09T06:54:35.224Z,4.68
2022-10-09T06:57:01.940Z,6.90
2022-10-09T06:59:28.716Z,2.55
2022-10-09T07:01:56.997Z,4.03
2022-10-09T07:04:23.872Z,12.20
2022-10-09T07:06:50.705Z,6.47
2022-10-09T07:09:17.456Z,8.10
2022-10-09T07:11:47.861Z,10.15
2022-10-09T07:14:18.416Z,9.40
2022-10-09T07:16:47.243Z,15.52
2022-10-09T07:19:15.649Z,13.75
2022-10-09T07:21:44.508Z,11.00
2022-10-09T07:24:12.319Z,13.07
2022-10-09T07:26:42.306Z,10.88
2022-10-09T07:29:10.910Z,19.05
2022-10-09T07:31:37.916Z,11.85
2022-10-09T07:34:06.282Z,16.15
2022-10-09T07:36:33.264Z,19.38
2022-10-09T07:39:00.113Z,14.55
2022-10-09T07:41:28.903Z,10.02
2022-10-09T07:43:55.761Z,14.68
2022-10-09T07:46:24.240Z,11.80
2022-10-09T07:48:51.389Z,11.48
2022-10-09T07:51:37.026Z,13.43
2022-10-09T07:54:22.401Z,8.40
2022-10-09T07:56:49.184Z,6.65
2022-10-09T07:59:16.883Z,7.80
2022-10-09T08:01:44.471Z,6.78
2022-10-09T08:04:11.476Z,5.18
2022-10-09T08:06:38.578Z,4.47
2022-10-09T08:09:07.561Z,4.78
2022-10-09T08:11:35.331Z,5.93
2022-10-09T08:14:02.176Z,9.45
2022-10-09T08:16:29.182Z,6.18
2022-10-09T08:18:58.213Z,7.53
2022-10-09T08:21:26.125Z,5.22
2022-10-09T08:23:55.164Z,4.57
2022-10-09T08:26:23.405Z,7.68
2022-10-09T08:28:52.156Z,7.60
2022-10-09T08:31:19.784Z,6.25
2022-10-09T08:33:47.164Z,10.25
2022-10-09T08:36:17.520Z,6.40
2022-10-09T08:38:48.285Z,5.15
2022-10-09T08:41:39.565Z,7.13
2022-10-09T08:44:29.712Z,13.70
2022-10-09T08:47:05.114Z,6.65
2022-10-09T08:49:38.721Z,6.15
2022-10-09T08:52:23.337Z,7.10
2022-10-09T08:54:51.601Z,13.82
2022-10-09T08:57:20.095Z,9.20
2022-10-09T08:59:46.865Z,5.07
2022-10-09T09:02:38.848Z,14.25
2022-10-09T09:05:50.558Z,10.25
2022-10-09T09:08:31.013Z,8.27
2022-10-09T09:11:21.399Z,13.55
2022-10-09T09:14:04.003Z,11.10
2022-10-09T09:16:56.889Z,10.07
2022-10-09T09:19:42.875Z,8.90
2022-10-09T09:22:13.533Z,8.27
2022-10-09T09:24:43.109Z,13.00
2022-10-09T09:27:14.381Z,13.35
2022-10-09T09:29:50.453Z,12.07
2022-10-09T09:32:26.248Z,11.23
2022-10-09T09:35:03.588Z,12.35
2022-10-09T09:37:49.126Z,15.23
2022-10-09T09:40:36.298Z,17.50
2022-10-09T09:43:13.497Z,16.75
2022-10-09T09:45:40.385Z,17.05
2022-10-09T09:48:15.112Z,11.13
2022-10-09T09:50:50.621Z,11.40
2022-10-09T09:53:41.123Z,8.25
2022-10-09T09:56:09.156Z,10.15
2022-10-09T09:58:45.162Z,13.30
2022-10-09T10:01:24.896Z,9.75
2022-10-09T10:03:55.004Z,14.45
2022-10-09T10:06:25.846Z,14.60
2022-10-09T10:09:13.551Z,14.13
2022-10-09T10:11:48.113Z,8.45
2022-10-09T10:14:17.099Z,8.18
2022-10-09T10:16:48.063Z,11.70
2022-10-09T10:19:26.771Z,11.02
2022-10-09T10:22:28.186Z,12.68
2022-10-09T10:24:58.329Z,5.43
2022-10-09T10:27:33.651Z,9.82
2022-10-09T10:30:06.510Z,10.77
2022-10-09T10:32:39.609Z,7.40
2022-10-09T10:35:27.796Z,8.18
2022-10-09T10:39:03.572Z,8.18
2022-10-09T10:42:08.176Z,8.65
2022-10-09T10:44:34.918Z,8.38
2022-10-09T10:47:11.548Z,12.27
2022-10-09T10:49:38.470Z,8.73
2022-10-09T10:52:07.980Z,8.98
2022-10-09T10:54:50.174Z,8.77
2022-10-09T10:57:26.124Z,11.02
2022-10-09T10:59:56.528Z,8.05
2022-10-09T11:03:21.682Z,8.85
2022-10-09T11:05:56.487Z,12.40
2022-10-09T11:11:55.513Z,14.93
2022-10-09T11:14:45.233Z,9.25
2022-10-09T11:17:44.280Z,11.75
2022-10-09T11:20:30.649Z,15.30
2022-10-09T11:23:24.188Z,13.15
2022-10-09T11:26:04.413Z,10.07
2022-10-09T11:28:40.645Z,13.75
2022-10-09T11:31:27.923Z,14.55
2022-10-09T11:34:00.481Z,6.53
2022-10-09T11:36:33.744Z,10.23
2022-10-09T11:39:11.531Z,17.52
2022-10-09T11:41:39.006Z,14.02
2022-10-09T11:44:22.966Z,9.73
2022-10-09T11:47:01.731Z,15.27
2022-10-09T11:50:14.550Z,14.80
2022-10-09T11:52:51.077Z,10.80
2022-10-09T11:55:27.087Z,15.40
2022-10-09T11:57:54.031Z,12.85
2022-10-09T12:00:33.016Z,13.95
2022-10-09T12:03:03.065Z,8.95
2022-10-09T12:05:43.494Z,10.57
2022-10-09T12:08:18.337Z,14.75
2022-10-09T12:10:55.452Z,15.55
2022-10-09T12:14:04.668Z,13.90
2022-10-09T12:16:40.147Z,15.38
2022-10-09T12:19:24.222Z,15.73
2022-10-09T12:22:00.867Z,9.23
2022-10-09T12:24:33.402Z,15.90
2022-10-09T12:27:03.335Z,12.18
2022-10-09T12:29:36.609Z,20.40
2022-10-09T12:32:08.213Z,15.70
2022-10-09T12:34:42.070Z,13.15
2022-10-09T12:37:21.427Z,15.45
2022-10-09T12:39:49.720Z,13.93
2022-10-09T12:42:21.621Z,20.70
2022-10-09T12:44:51.036Z,11.75
2022-10-09T12:47:22.946Z,14.13
2022-10-09T12:50:35.790Z,12.48
2022-10-09T12:53:13.583Z,17.45
2022-10-09T12:55:47.473Z,14.13
2022-10-09T12:58:39.514Z,9.10
2022-10-09T13:01:12.333Z,9.55
2022-10-09T13:03:53.454Z,14.25
2022-10-09T13:06:23.129Z,15.45
2022-10-09T13:09:03.138Z,16.67
2022-10-09T13:14:26.929Z,13.90
2022-10-09T13:16:54.183Z,11.23
2022-10-09T13:19:27.573Z,17.38
2022-10-09T13:22:13.941Z,19.00
2022-10-09T13:24:40.680Z,24.77
2022-10-09T13:27:07.521Z,20.25
2022-10-09T13:29:52.983Z,21.50
2022-10-09T13:32:38.010Z,17.88
2022-10-09T13:35:05.452Z,13.63
2022-10-09T13:37:32.433Z,16.02
2022-10-09T13:40:00.265Z,10.35
2022-10-09T13:42:31.005Z,15.70
2022-10-09T13:45:16.076Z,14.63
2022-10-09T13:47:42.826Z,9.38
2022-10-09T13:50:09.914Z,19.98
2022-10-09T13:52:55.410Z,17.90
2022-10-09T13:55:22.194Z,11.15
2022-10-09T13:57:49.236Z,17.30
2022-10-09T14:00:36.209Z,15.80
2022-10-09T14:03:04.774Z,12.45
2022-10-09T14:05:31.520Z,12.68
2022-10-09T14:07:58.273Z,11.95
2022-10-09T14:10:24.980Z,19.35
2022-10-09T14:12:52.107Z,14.75
2022-10-09T14:15:19.015Z,11.05
2022-10-09T14:18:04.216Z,12.27
2022-10-09T14:20:31.124Z,12.60
2022-10-09T14:22:57.821Z,19.05
2022-10-09T14:25:24.582Z,11.20
2022-10-09T14:27:51.313Z,17.25
2022-10-09T14:30:36.918Z,16.80
2022-10-09T14:33:03.742Z,17.00
2022-10-09T14:35:30.550Z,22.13
2022-10-09T14:37:57.349Z,13.02
2022-10-09T14:40:24.523Z,15.10
2022-10-09T14:42:51.600Z,22.38
2022-10-09T14:45:18.647Z,15.68
2022-10-09T14:47:45.434Z,19.33
2022-10-09T14:50:12.185Z,15.85
2022-10-09T14:52:39.016Z,23.48
2022-10-09T14:55:06.194Z,13.48
2022-10-09T14:57:35.362Z,12.63
2022-10-09T15:00:04.788Z,13.90
2022-10-09T15:02:31.636Z,11.73
2022-10-09T15:04:58.502Z,22.20
2022-10-09T15:07:28.025Z,17.00
2022-10-09T15:12:39.683Z,19.80
2022-10-09T15:15:07.020Z,18.35
2022-10-09T15:17:33.749Z,12.15
2022-10-09T15:20:00.554Z,16.60
2022-10-09T15:22:46.155Z,16.38
2022-10-09T15:25:12.978Z,14.40
2022-10-09T15:27:39.664Z,16.33
2022-10-09T15:30:07.105Z,16.48
2022-10-09T15:32:33.819Z,17.38
2022-10-09T15:35:19.561Z,17.08
2022-10-09T15:37:46.361Z,21.38
2022-10-09T15:40:41.109Z,18.13
2022-10-09T15:43:28.030Z,14.43
2022-10-09T15:46:02.983Z,15.10
2022-10-09T15:48:29.758Z,17.65
2022-10-09T15:50:57.008Z,10.57
2022-10-09T15:53:24.984Z,16.58
2022-10-09T15:56:12.487Z,16.02
2022-10-09T15:58:39.269Z,13.10
2022-10-09T16:01:09.678Z,16.00
2022-10-09T16:03:37.276Z,12.52
2022-10-09T16:06:07.267Z,10.98
2022-10-09T16:08:34.340Z,9.13
2022-10-09T16:11:05.827Z,13.27
2022-10-09T16:13:37.921Z,9.82
2022-10-09T16:16:10.485Z,14.70
2022-10-09T16:18:37.680Z,18.15
2022-10-09T16:21:20.191Z,9.98
2022-10-09T16:24:05.676Z,11.95
2022-10-09T16:26:32.483Z,11.52
2022-10-09T16:29:00.632Z,14.38
2022-10-09T16:31:31.133Z,10.02
2022-10-09T16:33:58.458Z,15.82
2022-10-09T16:36:25.387Z,13.57
2022-10-09T16:38:52.137Z,12.90
2022-10-09T16:41:20.777Z,10.15
2022-10-09T16:43:49.993Z,12.52
2022-10-09T16:46:19.648Z,10.70
2022-10-09T16:48:47.281Z,8.43
2022-10-09T16:51:16.864Z,16.20
2022-10-09T16:53:43.831Z,11.70
2022-10-09T16:56:13.366Z,15.07
2022-10-09T16:58:41.754Z,18.88
2022-10-09T17:01:10.360Z,8.55
2022-10-09T17:03:40.601Z,18.30
2022-10-09T17:06:09.645Z,14.43
2022-10-09T17:08:36.882Z,18.40
2022-10-09T17:11:07.485Z,13.93
2022-10-09T17:13:35.412Z,16.25
2022-10-09T17:16:08.737Z,11.77
2022-10-09T17:18:36.659Z,11.68
2022-10-09T17:23:57.100Z,11.82
2022-10-09T17:26:25.328Z,13.55
2022-10-09T17:28:52.909Z,16.67
2022-10-09T17:31:24.488Z,14.43
2022-10-09T17:33:56.361Z,16.05
2022-10-09T17:36:26.003Z,14.30
2022-10-09T17:38:53.394Z,12.55
2022-10-09T17:41:23.629Z,20.05
2022-10-09T17:43:54.738Z,16.08
2022-10-09T17:46:23.221Z,13.15
2022-10-09T17:48:53.405Z,10.70
2022-10-09T17:51:23.944Z,13.50
2022-10-09T17:53:51.364Z,18.70
2022-10-09T17:56:18.245Z,15.27
2022-10-09T17:59:03.961Z,19.48
2022-10-09T18:01:31.393Z,15.25
2022-10-09T18:03:59.210Z,15.90
2022-10-09T18:06:26.799Z,17.27
2022-10-09T18:08:57.207Z,20.15
2022-10-09T18:11:25.629Z,16.67
2022-10-09T18:13:53.323Z,19.73
2022-10-09T18:16:25.145Z,17.00
2022-10-09T18:21:38.606Z,13.77
2022-10-09T18:24:43.556Z,13.25
2022-10-09T18:29:54.957Z,16.33
2022-10-09T18:32:21.681Z,15.95
2022-10-09T18:34:48.495Z,15.98
2022-10-09T18:37:15.472Z,19.15
2022-10-09T18:39:42.272Z,14.77
2022-10-09T18:42:10.305Z,17.00
2022-10-09T18:44:55.515Z,11.13
2022-10-09T18:47:28.364Z,15.48
2022-10-09T18:49:58.769Z,16.30
2022-10-09T18:52:26.223Z,19.88
2022-10-09T18:54:54.796Z,23.65
2022-10-09T18:57:23.847Z,16.60
2022-10-09T18:59:52.454Z,18.88
2022-10-09T19:02:20.193Z,18.60
2022-10-09T19:04:46.968Z,12.85
2022-10-09T19:07:13.844Z,15.95
2022-10-09T19:12:25.405Z,17.73
2022-10-09T19:14:52.556Z,20.90
2022-10-09T19:20:22.537Z,17.95
2022-10-09T19:22:49.324Z,15.88
2022-10-09T19:25:18.087Z,18.75
2022-10-09T19:28:03.923Z,17.42
2022-10-09T19:30:43.705Z,19.85
2022-10-09T19:33:49.056Z,18.95
2022-10-09T19:36:15.983Z,14.95
2022-10-09T19:38:42.925Z,16.95
2022-10-09T19:41:13.058Z,16.88
2022-10-09T19:43:59.449Z,15.85
2022-10-09T19:46:26.889Z,16.98
2022-10-09T19:48:53.918Z,15.95
2022-10-09T19:51:23.221Z,23.67
2022-10-09T19:53:52.216Z,21.08
2022-10-09T19:56:26.214Z,19.88
2022-10-09T19:58:54.470Z,22.27
2022-10-09T20:01:24.577Z,14.98
2022-10-09T20:03:59.820Z,15.85
2022-10-09T20:06:27.601Z,20.25
2022-10-09T20:08:54.443Z,17.40
2022-10-09T20:11:40.161Z,5.55
2022-10-09T20:14:09.319Z,0.68
2022-10-09T20:16:36.638Z,1.55
2022-10-09T20:19:04.996Z,0.73
2022-10-09T20:21:33.569Z,0.40
2022-10-09T20:24:01.399Z,1.80
2022-10-09T20:26:28.404Z,0.20
2022-10-09T20:28:55.276Z,0.30
2022-10-09T20:31:43.504Z,0.35
2022-10-09T20:34:10.409Z,8.20
2022-10-09T20:36:39.077Z,7.88
2022-10-09T20:39:12.588Z,4.43
2022-10-09T20:41:40.923Z,7.30
2022-10-09T20:44:07.700Z,9.88
2022-10-09T20:46:36.736Z,2.80
2022-10-09T20:49:06.404Z,7.57
2022-10-09T20:51:37.781Z,4.68
2022-10-09T20:54:06.017Z,9.57
2022-10-09T20:56:34.040Z,6.93
2022-10-09T20:59:01.074Z,9.48
2022-10-09T21:01:28.862Z,6.85
2022-10-09T21:03:59.099Z,7.15
2022-10-09T21:06:44.669Z,8.77
2022-10-09T21:09:11.484Z,7.53
2022-10-09T21:11:40.293Z,8.13
2022-10-09T21:14:07.468Z,5.67
2022-10-09T21:16:34.222Z,8.93
2022-10-09T21:19:03.391Z,6.20
2022-10-09T21:22:07.825Z,7.07
2022-10-09T21:24:34.590Z,8.27
2022-10-09T21:27:01.309Z,5.20
2022-10-09T21:29:28.144Z,10.40
2022-10-09T21:31:54.918Z,5.93
2022-10-09T21:34:21.615Z,7.93
2022-10-09T21:37:16.480Z,6.00
2022-10-09T21:39:38.228Z,8.87
2022-10-09T21:42:05.228Z,7.03
2022-10-09T21:44:32.028Z,5.00
2022-10-09T21:46:58.914Z,4.53
2022-10-09T21:49:27.991Z,9.23
2022-10-09T21:51:55.234Z,5.63
2022-10-09T21:54:40.853Z,5.13
2022-10-09T21:57:07.674Z,7.73
2022-10-09T21:59:34.517Z,9.55
2022-10-09T22:02:01.471Z,5.22
2022-10-09T22:04:28.229Z,5.40
2022-10-09T22:06:55.249Z,4.40
2022-10-09T22:09:22.087Z,5.15
2022-10-09T22:11:48.913Z,8.55
2022-10-09T22:14:15.808Z,7.10
2022-10-09T22:16:42.609Z,7.93
2022-10-09T22:19:09.375Z,5.13
2022-10-09T22:21:36.249Z,5.15
2022-10-09T22:24:03.087Z,5.93
2022-10-09T22:26:30.116Z,6.77
2022-10-09T22:29:15.623Z,4.47
2022-10-09T22:31:42.485Z,7.27
2022-10-09T22:34:09.573Z,3.50
2022-10-09T22:36:54.951Z,4.45
2022-10-09T22:39:21.763Z,7.37
2022-10-09T22:41:48.914Z,4.93
2022-10-09T22:44:15.837Z,5.57
2022-10-09T22:46:44.033Z,4.53
2022-10-09T22:49:13.056Z,4.57
2022-10-09T22:51:39.776Z,5.10
2022-10-09T22:54:06.634Z,4.00
2022-10-09T22:56:36.946Z,11.87
2022-10-09T22:59:05.309Z,6.60
2022-10-09T23:01:39.488Z,8.70
2022-10-09T23:04:10.005Z,7.30
2022-10-09T23:06:37.133Z,4.70
2022-10-09T23:09:07.126Z,6.97
2022-10-09T23:11:34.122Z,3.67
2022-10-09T23:14:01.670Z,4.83
2022-10-09T23:16:30.092Z,4.37
2022-10-09T23:19:01.910Z,2.60
2022-10-09T23:21:31.570Z,5.13
2022-10-09T23:23:58.924Z,4.23
2022-10-09T23:26:28.321Z,11.60
2022-10-09T23:29:00.776Z,10.97
2022-10-09T23:31:28.595Z,3.30
2022-10-09T23:33:56.323Z,7.63
2022-10-09T23:36:25.352Z,5.73
2022-10-09T23:38:52.691Z,6.30
2022-10-09T23:41:22.696Z,5.50
2022-10-09T23:43:49.985Z,5.33
2022-10-09T23:46:22.524Z,5.60
2022-10-09T23:48:50.746Z,10.17
2022-10-09T23:51:19.234Z,5.87
2022-10-09T23:53:46.606Z,7.83
2022-10-09T23:56:23.177Z,6.03
2022-10-09T23:59:09.808Z,5.00
